KMSY Airport Information

Runway Information
Runway 01 Length 7001 ft width 150 ft
Elevation 3 ft Threshold 0 ft Heading 15
Runway 19 Length 7001 ft Width 150 ft
Elevation 0 ft Threshold 0 ft Heading 195
Runway 06 Length 3570 ft width 150 ft
Elevation 2 ft Threshold 0 ft Heading 60
Runway 24 Length 3570 ft Width 150 ft
Elevation 1 ft Threshold 0 ft Heading 240
Runway 10 Length 10104 ft width 150 ft
Elevation 4 ft Threshold 0 ft Heading 106
Runway 28 Length 10104 ft Width 150 ft
Elevation 2 ft Threshold 304 ft Heading 286
Airport Frequencies
Type A/D Name NEW ORLEAN Frequency 123.85 MHZ
Type ATIS Name ATIS Frequency 127.55 MHZ
Type CLD Name CLNC DEL Frequency 127.2 MHZ
Type GND Name GND Frequency 121.9 MHZ
Type TWR Name TWR Frequency 119.5 MHZ
Type UNIC Name UNICOM Frequency 122.95 MHZ
Airport Navaids
Type NDB Name Kinte Frequency 338 KHZ
Airport Weather Information & NOTAM
ADDS - METARS form results

(0151 UTC 19 January 2018)
 
METAR text: KMSY 190053Z 00000KT 10SM CLR 02/M06 A3044 RMK AO2 SLP309 T00221056
Conditions at: KMSY (NEW ORLEANS/INTL, LA, US) observed 0053 UTC 19 January 2018
Temperature: 2.2°C (36°F)
Dewpoint: -5.6°C (22°F) [RH = 56%]
Pressure (altimeter): 30.44 inches Hg (1030.9 mb)
[Sea-level pressure: 1030.9 mb]
Winds: calm
Visibility: 10 or more miles (16+ km)
Ceiling: at least 12,000 feet AGL
Clouds: sky clear below 12,000 feet AGL
Weather: no significant weather observed at this time